Portada
METAR-TAF:

METAR-TAF

Aeropuertos :

Aeropuerto Internacional Maurice Bishop

St. George's, Granada

latitud: 12-00N, longitud: 061-47W, altitud: 6 m

Observación

El informe se hizo hace 10 horas y 48 minutos, a las 05:00 UTC
Viento 10 kt del este
Temperatura 27°C
Humedad 79%
Presión 1015 hPa
Visibilidad 10 km o más
Escasas nubes a una altura de 1500 ft, Cumulonimbus.
Nubes dispersas a una altura de 1800 ft
tormenta en las proximidades

METAR: TGPY 210500Z 10010KT 9999 VCTS FEW015CB SCT018 27/23 Q1015 NOSIG CB-SSE/SSW

Hora: 11:48 (15:48 UTC)

Pronóstico

El informe se hizo hace 11 horas y 48 minutos, a las 04:00 UTC
Pronóstico válido del 21 a las 06 UTC al 22 a las 06 UTC
Viento 7 kt del este
Visibilidad 10 km o más
Nubes dispersas a una altura de 1800 ft

TAF: TGPY 210400Z 2106/2206 09007KT 9999 SCT018

Observaciones y pronósticos meteorológicos de más de 4000 aeropuertos (mensajes METAR y TAF).

Los puntos amarillos y rojos representan las estaciones disponibles.

Ponga el ratón en el punto deseado para ver el nombre de la estación.

Haga clic para ver las observaciones y los pronósticos meteorológicos.

Para cambiar el mapa : haga clic en los botones verdes con una cruz de color negro para hacer un zoom, en el botón verde con un guión para alejar o en las flechas verdes para mapas adyacentes.


METAR-TAF: